Time;durP1;ratioP1;P1;durP2;ratioP2;P2;SDS_P1;SDS_P2;PMS_P1;PMS_P2;Temp;Humidity;BMP_temperature;BMP_pressure;BME280_temperature;BME280_humidity;BME280_pressure;Samples;Min_cycle;Max_cycle;Signal;HPM_P1;HPM_P2
2022/05/07 00:00:56;;;;;;;78.40;46.55;;;;;;;24.93;74.65;97955.13;5067726;28;20040;-64
2022/05/07 00:03:46;;;;;;;87.70;46.20;;;;;;;24.86;74.25;97956.69;5066959;28;20048;-64
2022/05/07 00:06:31;;;;;;;77.30;44.67;;;;;;;24.89;78.33;97955.56;5078597;28;20462;-63
2022/05/07 00:09:20;;;;;;;82.00;44.63;;;;;;;24.98;79.24;97959.94;5064364;28;20048;-64
2022/05/07 00:12:02;;;;;;;80.35;44.38;;;;;;;24.85;78.98;97964.75;5078273;28;20110;-63
2022/05/07 00:14:52;;;;;;;75.13;46.47;;;;;;;24.68;77.73;97959.34;5077494;28;20058;-64
2022/05/07 00:20:42;;;;;;;74.85;44.92;;;;;;;24.59;79.02;97965.50;5066737;28;20051;-64
2022/05/07 00:23:31;;;;;;;80.43;45.00;;;;;;;24.57;81.03;97967.50;5076129;28;20056;-64
2022/05/07 00:26:13;;;;;;;75.60;45.53;;;;;;;24.62;82.90;97972.28;5075826;28;20052;-64
2022/05/07 00:29:02;;;;;;;83.85;46.22;;;;;;;24.52;79.58;97980.28;5058975;28;20232;-64
2022/05/07 00:31:44;;;;;;;83.60;46.97;;;;;;;24.67;82.60;97984.03;5060198;28;20067;-64
2022/05/07 00:34:34;;;;;;;75.72;44.78;;;;;;;24.74;84.17;97986.91;5056431;28;20052;-64
2022/05/07 00:37:16;;;;;;;79.78;44.38;;;;;;;24.84;81.52;97992.06;5076984;28;20043;-63
2022/05/07 00:40:13;;;;;;;73.22;43.95;;;;;;;24.84;80.70;97990.25;5079182;28;20040;-64
2022/05/07 00:42:48;;;;;;;79.00;45.38;;;;;;;24.77;75.54;97990.03;5075711;28;20085;-64
2022/05/07 00:45:37;;;;;;;68.30;42.90;;;;;;;24.88;83.25;97989.00;5057125;28;20058;-64
2022/05/07 00:48:27;;;;;;;74.70;44.38;;;;;;;24.88;82.80;97986.34;5061210;28;20131;-64
2022/05/07 00:51:35;;;;;;;70.70;41.38;;;;;;;24.89;82.51;97987.19;5070969;28;20040;-64
2022/05/07 00:54:24;;;;;;;73.35;41.97;;;;;;;24.92;82.40;97985.09;5075565;28;20047;-64
2022/05/07 00:57:08;;;;;;;67.00;40.55;;;;;;;24.92;81.58;97987.72;5060910;28;20040;-63
2022/05/07 00:59:58;;;;;;;70.18;41.63;;;;;;;24.88;78.52;97996.06;5067343;28;20101;-64
2022/05/07 01:02:41;;;;;;;73.53;41.40;;;;;;;24.88;75.75;97993.44;5085141;28;20837;-64
2022/05/07 01:05:31;;;;;;;78.40;41.15;;;;;;;24.99;75.64;97995.84;5067331;28;20071;-64
2022/05/07 01:08:14;;;;;;;;;;;;;;;25.02;73.94;97987.63;5067608;28;20054;-64
2022/05/07 01:11:03;;;;;;;70.35;38.75;;;;;;;25.13;76.12;98001.41;5085614;28;20417;-65
2022/05/07 01:13:46;;;;;;;56.60;36.88;;;;;;;25.27;79.76;98000.00;5047240;28;20044;-63
2022/05/07 01:16:38;;;;;;;63.60;36.08;;;;;;;25.35;76.45;98007.97;5063770;28;20155;-64
2022/05/07 01:19:20;;;;;;;59.65;35.40;;;;;;;25.47;82.96;98006.72;5063544;28;20676;-64
2022/05/07 01:22:10;;;;;;;59.20;35.55;;;;;;;25.52;82.12;98017.66;5076125;28;20093;-64
2022/05/07 01:24:54;;;;;;;63.03;36.50;;;;;;;25.51;73.75;98025.72;5067361;28;20391;-64
2022/05/07 01:27:42;;;;;;;65.38;37.40;;;;;;;25.57;75.70;98018.97;5067053;28;20052;-64
2022/05/07 01:30:33;;;;;;;60.40;34.92;;;;;;;25.71;79.93;98026.31;5066428;28;20098;-64
2022/05/07 01:33:15;;;;;;;64.38;36.50;;;;;;;25.80;76.84;98030.66;5084432;28;20059;-64
2022/05/07 01:36:06;;;;;;;66.22;36.78;;;;;;;25.87;78.36;98031.69;5065649;28;20056;-65
2022/05/07 01:38:51;;;;;;;63.00;34.75;;;;;;;26.01;78.41;98031.13;5066415;28;20158;-65
2022/05/07 01:41:41;;;;;;;63.97;34.60;;;;;;;26.08;74.66;98032.13;5079708;28;20048;-65
2022/05/07 01:44:23;;;;;;;50.22;33.78;;;;;;;26.22;76.87;98034.16;5083918;28;20590;-64
2022/05/07 01:50:12;;;;;;;57.90;32.15;;;;;;;27.01;71.25;98028.38;5066130;28;20048;-64
2022/05/07 01:53:01;;;;;;;58.92;34.50;;;;;;;27.14;66.19;98032.38;5066141;28;20048;-64
2022/05/07 01:55:46;;;;;;;64.10;34.38;;;;;;;27.41;65.63;98045.22;5052371;28;20049;-64
2022/05/07 01:58:48;;;;;;;58.53;34.28;;;;;;;27.51;64.44;98045.88;5067089;28;20541;-64
2022/05/07 02:01:29;;;;;;;;;;;;;;;27.99;63.63;98049.41;5070733;28;20056;-64
2022/05/07 02:04:18;;;;;;;54.08;33.95;;;;;;;28.33;63.51;98049.13;5070793;28;20259;-64
2022/05/07 02:07:00;;;;;;;60.20;35.58;;;;;;;28.84;59.68;98055.63;5071132;28;20067;-63
2022/05/07 02:09:49;;;;;;;56.58;35.38;;;;;;;29.43;58.93;98055.84;5070067;28;20047;-64
2022/05/07 02:12:33;;;;;;;61.67;37.60;;;;;;;30.00;57.71;98056.91;5080943;28;20043;-65
2022/05/07 02:15:25;;;;;;;65.60;36.80;;;;;;;30.17;53.94;98060.19;5058994;28;20083;-64
2022/05/07 02:18:13;;;;;;;65.88;37.42;;;;;;;30.53;55.16;98062.91;5070018;28;20052;-64
2022/05/07 02:20:56;;;;;;;60.00;38.33;;;;;;;30.81;54.43;98050.50;5050164;28;20164;-65
2022/05/07 02:23:52;;;;;;;54.25;32.67;;;;;;;31.18;51.55;98059.28;5067633;28;20048;-64
2022/05/07 02:26:28;;;;;;;51.97;31.13;;;;;;;31.14;51.96;98061.50;5066445;28;20048;-65
2022/05/07 02:29:18;;;;;;;51.10;31.52;;;;;;;31.44;50.36;98064.84;5049840;28;20102;-65
2022/05/07 02:32:06;;;;;;;55.17;31.10;;;;;;;31.57;51.21;98064.09;5068318;28;20043;-65
2022/05/07 02:34:57;;;;;;;58.90;29.33;;;;;;;31.97;48.74;98067.84;5070210;28;20051;-65
2022/05/07 02:37:44;;;;;;;42.58;25.63;;;;;;;32.39;48.16;98068.72;5070206;28;20048;-65
2022/05/07 02:43:37;;;;;;;41.33;23.98;;;;;;;32.80;49.45;98077.50;5072338;28;20044;-65
2022/05/07 02:46:26;;;;;;;52.42;26.73;;;;;;;32.29;47.79;98071.75;5052902;28;20057;-66
2022/05/07 02:49:12;;;;;;;39.55;21.23;;;;;;;33.14;44.49;98089.00;5070120;28;20144;-65
2022/05/07 02:52:09;;;;;;;32.22;19.98;;;;;;;33.46;43.82;98080.22;5050719;28;20106;-65
2022/05/07 02:54:44;;;;;;;33.95;20.85;;;;;;;33.68;43.68;98084.34;5049586;28;20711;-65
2022/05/07 02:57:34;;;;;;;36.03;18.13;;;;;;;33.70;43.17;98090.28;5067347;28;20061;-65
2022/05/07 03:00:17;;;;;;;40.13;19.70;;;;;;;33.72;42.77;98088.25;5049195;28;20063;-64
2022/05/07 03:03:14;;;;;;;33.45;19.65;;;;;;;33.88;42.75;98084.31;5049702;28;20159;-65
2022/05/07 03:06:02;;;;;;;34.95;19.00;;;;;;;34.21;42.76;98094.09;5058899;28;20125;-66
2022/05/07 03:08:57;;;;;;;32.08;18.83;;;;;;;33.75;43.75;98098.53;5086620;28;20059;-65
2022/05/07 03:11:34;;;;;;;29.98;18.50;;;;;;;33.97;43.93;98106.31;5068539;28;20048;-65
2022/05/07 03:14:29;;;;;;;28.02;16.98;;;;;;;33.84;43.76;98095.66;5065004;28;20055;-65
2022/05/07 03:17:13;;;;;;;27.90;17.27;;;;;;;33.36;43.01;98094.00;5067821;28;20070;-65
2022/05/07 03:20:08;;;;;;;33.00;16.42;;;;;;;33.81;44.92;98096.88;5064922;28;20573;-65
2022/05/07 03:22:52;;;;;;;38.88;16.25;;;;;;;33.53;43.03;98099.75;5065943;28;20436;-65
2022/05/07 03:25:42;;;;;;;27.25;15.25;;;;;;;34.47;42.00;98097.53;5067946;28;20480;-66
2022/05/07 03:28:31;;;;;;;24.42;15.23;;;;;;;34.72;43.06;98099.50;5084919;28;20044;-65
2022/05/07 03:31:19;;;;;;;27.50;15.50;;;;;;;34.42;43.20;98102.69;5067813;28;20506;-65
2022/05/07 03:34:09;;;;;;;25.13;14.18;;;;;;;34.79;48.05;98105.66;5067933;28;20048;-65
2022/05/07 03:36:57;;;;;;;27.13;13.93;;;;;;;34.94;42.00;98108.84;5066657;28;20044;-65
2022/05/07 03:39:50;;;;;;;24.42;13.77;;;;;;;34.53;41.32;98115.41;5048753;28;20059;-65
2022/05/07 03:42:33;;;;;;;25.08;13.70;;;;;;;35.12;38.95;98116.97;5065028;28;20048;-65
2022/05/07 03:45:24;;;;;;;24.08;13.07;;;;;;;34.63;40.82;98117.66;5076961;28;20044;-65
2022/05/07 03:48:07;;;;;;;29.55;13.40;;;;;;;34.57;40.03;98121.16;5049742;28;20049;-65
2022/05/07 03:51:06;;;;;;;;;;;;;;;34.27;38.92;98134.25;5058814;28;20048;-65
2022/05/07 03:53:41;;;;;;;26.70;13.77;;;;;;;35.23;39.78;98143.09;5048421;28;20339;-64
2022/05/07 03:56:32;;;;;;;26.23;11.98;;;;;;;35.56;37.88;98150.06;5047171;28;20067;-65
2022/05/07 03:59:21;;;;;;;20.17;12.27;;;;;;;35.58;40.97;98156.06;5047899;28;20044;-66
2022/05/07 04:02:05;;;;;;;26.65;12.52;;;;;;;35.45;40.72;98154.28;5043834;28;20055;-66
2022/05/07 04:05:00;;;;;;;25.55;12.18;;;;;;;35.49;38.84;98160.03;5047646;28;20040;-66
2022/05/07 04:07:50;;;;;;;34.95;12.38;;;;;;;35.33;36.79;98157.88;5045775;28;20068;-66
2022/05/07 04:10:40;;;;;;;24.38;12.23;;;;;;;35.93;39.41;98153.69;5060115;28;20114;-65
2022/05/07 04:13:39;;;;;;;32.22;13.00;;;;;;;36.13;38.52;98162.38;5047937;28;20122;-65
2022/05/07 04:16:15;;;;;;;24.60;13.68;;;;;;;35.63;38.88;98167.75;5044903;28;20593;-65
2022/05/07 04:19:15;;;;;;;35.22;13.05;;;;;;;36.49;37.77;98177.69;5027329;28;20541;-66
2022/05/07 04:22:02;;;;;;;30.98;14.27;;;;;;;36.79;38.34;98175.94;5014785;28;20118;-66
2022/05/07 04:24:53;;;;;;;32.45;13.02;;;;;;;36.12;38.11;98174.16;5022210;28;20064;-66
2022/05/07 04:27:47;;;;;;;30.17;12.82;;;;;;;36.18;40.99;98169.75;5021571;28;20037;-66
2022/05/07 04:30:31;;;;;;;30.42;12.77;;;;;;;36.37;36.86;98176.81;5032570;28;20136;-65
2022/05/07 04:33:26;;;;;;;23.50;12.02;;;;;;;36.64;39.10;98180.03;5027723;28;20049;-65
2022/05/07 04:36:13;;;;;;;22.92;11.35;;;;;;;36.86;36.01;98180.41;5028298;28;20041;-66
2022/05/07 04:39:08;;;;;;;25.55;11.13;;;;;;;36.82;37.33;98185.41;5041299;28;20090;-66
2022/05/07 04:42:07;;;;;;;23.75;10.38;;;;;;;37.33;34.39;98184.13;5047170;28;20506;-66
2022/05/07 04:45:02;;;;;;;28.42;12.35;;;;;;;36.62;35.35;98187.47;5044032;28;20048;-65
2022/05/07 04:48:04;;;;;;;23.15;11.02;;;;;;;37.09;34.93;98193.94;5051027;28;20123;-66
2022/05/07 04:50:59;;;;;;;24.23;12.27;;;;;;;37.19;35.17;98188.88;5038190;28;20071;-66
2022/05/07 04:54:21;;;;;;;24.65;11.43;;;;;;;37.57;36.00;98185.81;5033187;28;20568;-64
2022/05/07 04:57:14;;;;;;;29.42;12.88;;;;;;;36.55;37.39;98182.19;5036814;28;20036;-65
2022/05/07 05:00:09;;;;;;;21.25;11.07;;;;;;;36.97;35.66;98191.19;5039637;28;20053;-66
2022/05/07 05:03:17;;;;;;;26.27;11.00;;;;;;;37.55;35.46;98186.03;5041867;28;20056;-66
2022/05/07 05:06:13;;;;;;;20.15;10.65;;;;;;;36.99;34.58;98188.28;5026677;28;20041;-66
2022/05/07 05:09:07;;;;;;;27.60;15.00;;;;;;;37.47;35.45;98182.88;5045331;28;20063;-65
2022/05/07 05:12:00;;;;;;;33.33;15.63;;;;;;;37.52;34.82;98181.13;5043663;28;20527;-64
2022/05/07 05:15:03;;;;;;;41.60;15.70;;;;;;;36.92;35.55;98188.38;5035044;28;20578;-64
2022/05/07 05:18:06;;;;;;;32.72;14.68;;;;;;;37.09;36.89;98178.63;5047212;28;20411;-65
2022/05/07 05:20:57;;;;;;;26.30;14.45;;;;;;;37.32;35.85;98180.59;5039992;28;20182;-63
2022/05/07 05:24:24;;;;;;;28.50;15.15;;;;;;;37.76;37.84;98183.88;5023482;28;20468;-65
2022/05/07 05:27:14;;;;;;;31.38;15.73;;;;;;;36.88;35.99;98181.00;5045612;28;20075;-65
2022/05/07 05:30:03;;;;;;;27.52;15.88;;;;;;;37.00;38.22;98173.81;5059555;28;20047;-65
2022/05/07 05:32:46;;;;;;;39.63;18.00;;;;;;;37.34;35.72;98175.00;5064424;28;20040;-65
2022/05/07 05:35:39;;;;;;;36.53;16.40;;;;;;;37.45;40.05;98166.13;5032971;28;20712;-65
2022/05/07 05:38:22;;;;;;;38.03;17.00;;;;;;;37.16;37.97;98165.97;5025778;28;20075;-65
2022/05/07 05:41:11;;;;;;;35.42;16.38;;;;;;;36.79;39.10;98162.50;5043917;28;20640;-66
2022/05/07 05:43:56;;;;;;;31.13;16.38;;;;;;;36.95;35.98;98160.25;5049529;28;20044;-65
2022/05/07 05:46:46;;;;;;;39.38;15.25;;;;;;;37.09;34.19;98159.00;5035050;28;20423;-64
2022/05/07 05:49:29;;;;;;;34.08;15.70;;;;;;;37.32;37.10;98151.03;5051637;28;20375;-65
2022/05/07 05:52:24;;;;;;;33.08;16.13;;;;;;;37.25;39.93;98150.31;5070325;28;20073;-65
2022/05/07 05:55:15;;;;;;;38.45;16.45;;;;;;;37.20;36.15;98158.25;5062603;28;20147;-66
2022/05/07 05:58:05;;;;;;;31.30;16.30;;;;;;;37.46;35.67;98149.78;5060638;28;20125;-65
2022/05/07 06:00:46;;;;;;;42.03;16.25;;;;;;;36.92;34.00;98152.63;5061389;28;20696;-64
2022/05/07 06:03:38;;;;;;;32.13;15.95;;;;;;;37.65;39.51;98149.72;5062341;28;20822;-63
2022/05/07 06:06:23;;;;;;;30.33;13.68;;;;;;;37.44;36.02;98148.38;5066580;28;20076;-64
2022/05/07 06:09:13;;;;;;;29.25;15.55;;;;;;;37.55;37.20;98134.94;5078561;28;20064;-63
2022/05/07 06:12:02;;;;;;;38.40;16.45;;;;;;;37.45;35.63;98144.63;5075919;28;20059;-65
2022/05/07 06:14:51;;;;;;;24.75;15.90;;;;;;;36.97;35.39;98142.00;5065656;28;20740;-63
2022/05/07 06:17:37;;;;;;;31.13;16.13;;;;;;;37.13;38.25;98134.16;5054889;28;20044;-63
2022/05/07 06:20:29;;;;;;;29.73;13.82;;;;;;;37.26;34.71;98138.53;5048518;28;20051;-64
2022/05/07 06:23:11;;;;;;;38.47;14.05;;;;;;;37.14;35.14;98126.91;5067453;28;20040;-65
2022/05/07 06:29:05;;;;;;;30.23;13.15;;;;;;;37.38;35.27;98123.22;5063815;28;20040;-65
2022/05/07 06:31:54;;;;;;;32.33;13.25;;;;;;;37.39;37.50;98121.38;5067986;28;20169;-63
2022/05/07 06:34:36;;;;;;;33.83;14.85;;;;;;;37.37;38.65;98116.22;5077138;28;20494;-63
2022/05/07 06:37:25;;;;;;;38.42;14.68;;;;;;;37.40;38.31;98113.06;5063488;28;20048;-63
2022/05/07 06:40:14;;;;;;;24.67;14.13;;;;;;;37.36;38.57;98111.88;5076852;28;20112;-63
2022/05/07 06:42:57;;;;;;;;;;;;;;;37.21;36.71;98108.81;5069335;28;20566;-64
2022/05/07 06:46:12;;;;;;;31.50;13.38;;;;;;;37.24;41.50;98107.56;5084554;28;20460;-63
2022/05/07 06:49:11;;;;;;;28.05;12.38;;;;;;;36.79;36.77;98103.44;5069080;28;20075;-63
2022/05/07 06:52:02;;;;;;;38.55;13.57;;;;;;;36.71;36.86;98101.06;5066284;28;20037;-64
2022/05/07 06:54:57;;;;;;;27.73;13.02;;;;;;;36.92;36.17;98096.22;5080433;27;20441;-64
2022/05/07 06:57:53;;;;;;;33.88;12.85;;;;;;;36.91;35.45;98092.72;5057870;28;20124;-63
2022/05/07 07:01:10;;;;;;;24.23;11.65;;;;;;;37.07;36.96;98091.22;5066542;28;20055;-63
2022/05/07 07:03:45;;;;;;;28.20;10.75;;;;;;;36.97;33.68;98088.28;5066898;28;20651;-63
2022/05/07 07:06:41;;;;;;;30.73;12.18;;;;;;;36.75;32.57;98080.75;5066894;28;20045;-64
2022/05/07 07:09:19;;;;;;;32.80;12.35;;;;;;;36.88;33.63;98084.31;5066122;28;20044;-65
2022/05/07 07:12:19;;;;;;;25.50;12.68;;;;;;;36.85;35.62;98080.19;5066786;28;20135;-64
2022/05/07 07:15:08;;;;;;;26.42;11.75;;;;;;;36.83;40.25;98066.16;5067257;28;20056;-65
2022/05/07 07:17:58;;;;;;;24.80;11.20;;;;;;;36.77;38.27;98062.53;5066408;28;20152;-63
2022/05/07 07:20:50;;;;;;;26.98;10.57;;;;;;;36.68;34.40;98069.28;5060685;28;20072;-64
2022/05/07 07:23:39;;;;;;;25.20;11.35;;;;;;;36.77;37.56;98050.97;5063328;28;20094;-62
2022/05/07 07:26:30;;;;;;;16.75;10.77;;;;;;;36.86;36.48;98048.78;5064728;28;20068;-65
2022/05/07 07:29:18;;;;;;;27.20;12.05;;;;;;;36.89;36.46;98053.69;5065565;28;20044;-65
2022/05/07 07:32:08;;;;;;;17.23;9.55;;;;;;;36.93;37.19;98039.59;5065148;28;20053;-64
2022/05/07 07:34:57;;;;;;;19.33;11.38;;;;;;;37.02;36.50;98040.06;5062904;28;20049;-64
2022/05/07 07:37:46;;;;;;;20.20;10.25;;;;;;;36.85;39.90;98033.72;5066363;28;20083;-64
2022/05/07 07:40:29;;;;;;;21.00;9.87;;;;;;;36.75;33.74;98028.91;5065531;28;20193;-65
2022/05/07 07:43:18;;;;;;;21.25;10.13;;;;;;;36.76;36.28;98023.31;5064065;28;20839;-64
2022/05/07 07:49:07;;;;;;;18.70;9.20;;;;;;;36.77;33.12;98026.81;5066232;28;20052;-63
2022/05/07 07:51:56;;;;;;;25.35;10.25;;;;;;;36.91;35.24;98019.38;5069198;28;20071;-65
2022/05/07 07:54:50;;;;;;;18.02;8.52;;;;;;;36.77;31.27;98016.88;5066074;28;20060;-63
2022/05/07 07:57:45;;;;;;;21.65;8.65;;;;;;;36.89;35.04;98000.78;5082027;28;20125;-64
2022/05/07 08:00:44;;;;;;;25.27;8.43;;;;;;;36.79;33.39;98000.56;5086638;28;20048;-65
2022/05/07 08:03:39;;;;;;;19.17;7.72;;;;;;;36.74;31.96;98003.91;5071579;28;20051;-64
2022/05/07 08:06:14;;;;;;;14.65;8.10;;;;;;;36.83;33.02;97995.53;5087566;28;20056;-64
2022/05/07 08:12:05;;;;;;;19.48;8.27;;;;;;;36.63;30.91;97980.53;5084305;28;20044;-64
2022/05/07 08:14:54;;;;;;;23.10;7.45;;;;;;;36.75;31.36;97977.88;5075350;28;20056;-65
2022/05/07 08:17:43;;;;;;;35.08;8.93;;;;;;;36.57;29.07;97977.91;5070337;28;20657;-67
2022/05/07 08:20:25;;;;;;;24.23;9.25;;;;;;;36.50;29.09;97975.31;5083610;28;20080;-64
2022/05/07 08:23:15;;;;;;;21.95;8.27;;;;;;;36.63;30.09;97969.78;5057349;28;20106;-64
2022/05/07 08:26:04;;;;;;;22.00;8.20;;;;;;;36.67;33.32;97959.41;5073375;28;20532;-66
2022/05/07 08:28:47;;;;;;;;;;;;;;;36.58;32.94;97955.38;5084408;28;20048;-66
2022/05/07 08:31:43;;;;;;;23.73;8.60;;;;;;;36.55;33.63;97942.44;5083341;28;20304;-69
2022/05/07 08:34:18;;;;;;;19.98;7.45;;;;;;;36.55;32.87;97940.56;5077092;28;20060;-68
2022/05/07 08:37:13;;;;;;;16.65;7.03;;;;;;;36.56;32.54;97938.72;5077998;28;20608;-66
2022/05/07 08:40:02;;;;;;;21.55;6.97;;;;;;;36.50;30.21;97935.06;5067725;28;20060;-66
2022/05/07 08:42:44;;;;;;;17.95;7.40;;;;;;;36.50;33.54;97926.19;5080333;28;20052;-66
2022/05/07 08:45:34;;;;;;;20.80;7.20;;;;;;;36.54;30.45;97922.81;5078311;28;20043;-66
2022/05/07 08:48:16;;;;;;;17.80;7.00;;;;;;;36.56;30.15;97923.41;5073250;28;20044;-66
2022/05/07 08:51:05;;;;;;;16.73;7.07;;;;;;;36.53;33.71;97918.50;5083813;28;20040;-66
2022/05/07 08:53:53;;;;;;;20.15;7.30;;;;;;;36.55;30.51;97919.09;5082633;28;20541;-65
2022/05/07 08:56:42;;;;;;;16.88;7.57;;;;;;;36.49;31.85;97906.56;5069187;28;20048;-65
2022/05/07 08:59:24;;;;;;;18.88;7.57;;;;;;;36.46;33.48;97899.00;5072750;28;20133;-66
2022/05/07 09:02:15;;;;;;;19.38;7.70;;;;;;;36.24;33.51;97889.84;5063489;28;20517;-65
2022/05/07 09:04:58;;;;;;;18.65;7.18;;;;;;;36.09;32.42;97882.16;5064106;28;20044;-65
2022/05/07 09:08:04;;;;;;;14.32;7.25;;;;;;;35.96;32.67;97879.69;5047741;28;20058;-65
2022/05/07 09:10:54;;;;;;;21.20;7.82;;;;;;;35.97;32.14;97868.75;5062261;28;20482;-65
2022/05/07 09:13:43;;;;;;;15.27;7.68;;;;;;;35.90;33.80;97868.00;5063664;28;20080;-65
2022/05/07 09:16:35;;;;;;;13.13;7.28;;;;;;;35.95;32.95;97864.63;5064268;28;20051;-63
2022/05/07 09:19:31;;;;;;;17.33;7.65;;;;;;;35.89;34.36;97852.97;5064074;28;20040;-64
2022/05/07 09:22:15;;;;;;;18.52;7.85;;;;;;;35.76;36.69;97846.97;5062125;28;20044;-64
2022/05/07 09:25:05;;;;;;;26.40;8.00;;;;;;;35.65;38.95;97841.28;5064561;28;20109;-64
2022/05/07 09:27:57;;;;;;;19.00;8.23;;;;;;;35.75;33.88;97840.78;5047799;28;20048;-64
2022/05/07 09:30:44;;;;;;;27.27;8.50;;;;;;;35.71;30.63;97836.91;5062771;28;20045;-64
2022/05/07 09:33:34;;;;;;;25.40;8.35;;;;;;;35.70;29.36;97840.59;5062872;28;20052;-64
2022/05/07 09:36:20;;;;;;;20.85;8.35;;;;;;;35.90;26.98;97835.84;5063160;28;20037;-64
2022/05/07 09:39:17;;;;;;;20.65;8.43;;;;;;;35.74;29.02;97833.78;5062087;28;20925;-64
2022/05/07 09:42:03;;;;;;;15.30;7.68;;;;;;;35.74;31.13;97817.69;5063975;28;20645;-64
2022/05/07 09:44:52;;;;;;;22.48;8.55;;;;;;;35.55;34.15;97816.06;5048680;28;20052;-64
2022/05/07 09:47:35;;;;;;;21.27;7.55;;;;;;;35.29;35.62;97811.84;5062397;28;20049;-64
2022/05/07 09:50:43;;;;;;;15.60;7.95;;;;;;;35.21;36.72;97804.91;5063564;28;20056;-64
2022/05/07 09:59:53;;;;;;;22.77;10.20;;;;;;;35.38;29.45;97793.63;5073086;28;20044;-64
2022/05/07 10:03:33;;;;;;;20.85;10.02;;;;;;;35.09;35.28;97785.28;5061720;28;20724;-64
2022/05/07 10:06:53;;;;;;;23.67;9.95;;;;;;;35.23;32.13;97778.75;5062367;28;20060;-63
2022/05/07 10:09:35;;;;;;;23.97;9.73;;;;;;;35.16;33.23;97780.66;5062117;28;20074;-64
2022/05/07 10:12:25;;;;;;;25.90;9.60;;;;;;;35.32;34.13;97778.44;5060030;28;20086;-64
2022/05/07 10:15:15;;;;;;;23.40;10.23;;;;;;;35.35;35.70;97767.28;5063039;28;20053;-64
2022/05/07 10:18:10;;;;;;;19.90;9.52;;;;;;;35.38;32.29;97766.81;5062208;28;20053;-64
2022/05/07 10:20:54;;;;;;;19.15;8.57;;;;;;;35.37;32.90;97759.81;5062826;28;20040;-65
2022/05/07 10:23:57;;;;;;;14.25;9.18;;;;;;;35.20;38.29;97746.22;5048631;28;20059;-63
2022/05/07 10:26:50;;;;;;;15.55;10.13;;;;;;;34.98;35.20;97750.41;5065575;28;20044;-64
2022/05/07 10:29:39;;;;;;;15.70;8.63;;;;;;;34.78;35.69;97737.25;5066340;28;20072;-64
2022/05/07 10:32:35;;;;;;;24.42;9.18;;;;;;;34.86;33.09;97747.66;5065578;28;20114;-64
2022/05/07 10:35:11;;;;;;;19.50;9.82;;;;;;;34.87;34.26;97736.75;5065520;28;20045;-64
2022/05/07 10:38:13;;;;;;;25.48;11.07;;;;;;;35.08;32.22;97739.97;5064671;28;20049;-64
2022/05/07 10:41:09;;;;;;;20.75;10.30;;;;;;;35.12;35.20;97741.19;5065130;28;20056;-64
2022/05/07 10:44:04;;;;;;;25.10;10.23;;;;;;;35.08;32.31;97734.63;5067322;28;20139;-64
2022/05/07 10:46:53;;;;;;;30.15;9.98;;;;;;;34.92;32.87;97733.38;5068410;28;20474;-64
2022/05/07 10:49:35;;;;;;;22.85;11.07;;;;;;;34.77;36.88;97716.88;5068555;28;20048;-64
2022/05/07 10:52:38;;;;;;;27.83;9.57;;;;;;;34.62;32.74;97716.41;5066573;28;20186;-64
2022/05/07 10:55:29;;;;;;;20.17;9.20;;;;;;;34.50;38.15;97717.13;5065859;28;20602;-63
2022/05/07 10:58:36;;;;;;;23.48;9.02;;;;;;;34.48;34.24;97721.88;5063670;28;20055;-65
2022/05/07 11:01:36;;;;;;;25.85;9.50;;;;;;;34.46;37.11;97715.94;5075295;28;20052;-65
2022/05/07 11:04:31;;;;;;;26.67;9.90;;;;;;;34.23;39.55;97709.56;5072710;28;20044;-64
2022/05/07 11:07:20;;;;;;;21.50;10.05;;;;;;;34.11;39.83;97704.09;5064940;28;20048;-63
2022/05/07 11:10:10;;;;;;;18.70;9.45;;;;;;;34.01;41.05;97701.09;5081206;28;20764;-66
2022/05/07 11:13:09;;;;;;;21.20;10.73;;;;;;;33.94;39.21;97700.34;5076341;28;20392;-64
2022/05/07 11:16:03;;;;;;;21.48;9.82;;;;;;;34.04;39.78;97695.31;5077387;28;20056;-67
2022/05/07 11:18:58;;;;;;;23.80;9.27;;;;;;;34.16;37.67;97699.72;4723297;28;9999841;-64
2022/05/07 11:21:54;;;;;;;23.40;10.30;;;;;;;34.21;34.55;97699.09;5080157;28;20036;-66
2022/05/07 11:24:43;;;;;;;24.25;10.32;;;;;;;34.18;39.76;97694.16;5074886;28;20114;-63
2022/05/07 11:27:36;;;;;;;33.75;11.25;;;;;;;34.18;35.78;97692.31;5072495;28;20048;-65
2022/05/07 11:30:25;;;;;;;28.85;10.45;;;;;;;34.43;36.72;97681.59;5071809;28;20056;-64
2022/05/07 11:33:08;;;;;;;23.58;10.60;;;;;;;34.38;37.40;97684.13;5073005;28;20084;-65
2022/05/07 11:36:07;;;;;;;30.33;10.50;;;;;;;34.29;36.88;97682.78;5075813;28;20558;-65
2022/05/07 11:39:01;;;;;;;26.48;10.82;;;;;;;34.07;39.56;97678.84;5065544;28;20479;-65
2022/05/07 11:41:43;;;;;;;21.98;10.15;;;;;;;34.05;39.94;97681.75;5074700;28;20054;-65
2022/05/07 11:47:32;;;;;;;23.10;11.23;;;;;;;33.82;40.12;97668.19;5084416;28;20048;-65
2022/05/07 11:50:28;;;;;;;21.42;10.60;;;;;;;33.71;40.55;97675.00;5084432;28;20483;-66
2022/05/07 11:53:25;;;;;;;20.63;10.73;;;;;;;33.68;41.74;97674.63;5047261;28;20051;-66
2022/05/07 11:56:13;;;;;;;24.67;12.07;;;;;;;33.52;43.05;97667.16;5081084;28;20048;-66
2022/05/07 11:58:56;;;;;;;20.58;11.18;;;;;;;33.42;42.54;97659.63;5084392;28;20051;-64
2022/05/07 12:01:49;;;;;;;27.77;11.13;;;;;;;33.47;40.88;97657.09;5071356;28;20063;-65
2022/05/07 12:04:44;;;;;;;32.63;11.93;;;;;;;33.50;40.02;97659.34;5074772;28;20063;-67
2022/05/07 12:07:48;;;;;;;28.52;11.55;;;;;;;33.62;37.74;97662.13;5073912;28;20075;-65
2022/05/07 12:10:37;;;;;;;30.67;12.40;;;;;;;33.67;39.40;97667.66;5083101;28;20495;-65
2022/05/07 12:13:25;;;;;;;22.20;10.60;;;;;;;33.69;37.70;97666.38;5080133;28;20075;-64
2022/05/07 12:19:23;;;;;;;21.02;10.80;;;;;;;33.65;38.76;97665.19;5080052;28;20131;-64
2022/05/07 12:31:27;;;;;;;24.17;11.48;;;;;;;33.53;38.75;97647.41;5071801;28;20075;-65
2022/05/07 12:34:24;;;;;;;27.55;10.93;;;;;;;33.57;35.96;97652.09;5074562;28;20059;-63
2022/05/07 12:36:59;;;;;;;34.53;12.52;;;;;;;33.69;37.01;97645.00;5081080;28;20044;-65
2022/05/07 12:39:54;;;;;;;28.92;11.25;;;;;;;33.67;35.87;97651.63;5074730;28;20041;-62
2022/05/07 12:42:37;;;;;;;22.45;11.77;;;;;;;33.57;38.19;97649.44;5076968;28;20380;-64
2022/05/07 12:45:26;;;;;;;29.20;12.80;;;;;;;33.48;39.23;97647.22;5075759;28;20056;-65
2022/05/07 12:48:09;;;;;;;26.10;12.00;;;;;;;33.43;39.78;97639.88;5085042;28;20670;-64
2022/05/07 12:51:04;;;;;;;34.92;12.68;;;;;;;33.33;40.76;97647.56;5079586;28;20148;-65
2022/05/07 12:53:54;;;;;;;31.27;13.30;;;;;;;33.22;41.25;97642.88;5074525;28;20036;-63
2022/05/07 12:56:36;;;;;;;23.42;12.02;;;;;;;33.13;40.67;97644.97;5068126;28;20108;-64
2022/05/07 12:59:25;;;;;;;28.52;13.55;;;;;;;33.13;40.24;97641.47;5080251;28;20135;-64
2022/05/07 13:02:08;;;;;;;31.48;12.35;;;;;;;33.06;41.49;97645.00;5075964;28;20109;-65
2022/05/07 13:04:58;;;;;;;30.75;12.05;;;;;;;33.01;41.07;97644.84;5074658;28;20044;-65
2022/05/07 13:07:40;;;;;;;26.40;13.13;;;;;;;32.94;41.88;97652.06;5079267;28;20040;-64
2022/05/07 13:10:31;;;;;;;27.48;13.40;;;;;;;32.84;41.51;97651.69;5074734;28;20049;-65
2022/05/07 13:13:23;;;;;;;27.42;11.63;;;;;;;32.77;41.67;97650.91;5067595;28;20459;-65
2022/05/07 13:16:05;;;;;;;26.88;13.05;;;;;;;32.73;41.24;97647.00;5067097;28;20135;-65
2022/05/07 13:18:53;;;;;;;31.05;12.70;;;;;;;32.68;41.83;97646.81;5082390;28;20110;-64
2022/05/07 13:21:46;;;;;;;35.15;13.48;;;;;;;32.61;42.46;97652.19;5083995;28;20155;-65
2022/05/07 13:24:29;;;;;;;33.80;13.60;;;;;;;32.56;40.71;97652.00;5091770;28;20147;-65
2022/05/07 13:27:18;;;;;;;26.83;13.50;;;;;;;32.59;42.71;97658.75;5090571;28;20040;-64
2022/05/07 13:30:00;;;;;;;28.00;12.60;;;;;;;32.50;44.09;97649.31;5085158;28;20044;-65
2022/05/07 13:32:49;;;;;;;31.08;13.73;;;;;;;32.39;43.92;97652.66;5080541;28;20486;-65
2022/05/07 13:35:33;;;;;;;33.08;12.93;;;;;;;32.24;42.95;97645.72;5081892;28;20052;-65
2022/05/07 13:38:22;;;;;;;35.70;13.05;;;;;;;32.16;46.54;97651.28;5075142;28;20143;-65
2022/05/07 13:41:03;;;;;;;29.67;13.00;;;;;;;32.09;46.26;97652.28;5078197;28;20110;-64
2022/05/07 13:43:53;;;;;;;33.92;13.93;;;;;;;31.95;49.46;97651.47;5078065;28;20048;-65